sensor_id;sensor_type;location;lat;lon;timestamp;pressure;altitude;pressure_sealevel;temperature;humidity
83246;BME280;73140;46.754;17.714;2024-02-28T00:01:06;99444.78;;;11.29;86.06
83246;BME280;73140;46.754;17.714;2024-02-28T00:03:32;99475.69;;;11.39;85.57
83246;BME280;73140;46.754;17.714;2024-02-28T00:05:59;99367.78;;;10.82;84.87
83246;BME280;73140;46.754;17.714;2024-02-28T00:08:24;99473.91;;;11.38;84.48
83246;BME280;73140;46.754;17.714;2024-02-28T00:10:50;99452.69;;;11.26;85.30
83246;BME280;73140;46.754;17.714;2024-02-28T00:13:17;99466.88;;;11.40;85.05
83246;BME280;73140;46.754;17.714;2024-02-28T00:15:44;99438.59;;;11.31;85.50
83246;BME280;73140;46.754;17.714;2024-02-28T00:18:10;99433.28;;;11.33;85.01
83246;BME280;73140;46.754;17.714;2024-02-28T00:20:36;99477.50;;;11.49;83.92
83246;BME280;73140;46.754;17.714;2024-02-28T00:23:03;99447.44;;;11.36;84.48
83246;BME280;73140;46.754;17.714;2024-02-28T00:25:29;99475.75;;;11.48;83.46
83246;BME280;73140;46.754;17.714;2024-02-28T00:27:55;99454.50;;;11.42;84.58
83246;BME280;73140;46.754;17.714;2024-02-28T00:30:21;99454.47;;;11.33;84.90
83246;BME280;73140;46.754;17.714;2024-02-28T00:32:48;99433.25;;;11.24;84.61
83246;BME280;73140;46.754;17.714;2024-02-28T00:35:14;99423.53;;;11.17;83.94
83246;BME280;73140;46.754;17.714;2024-02-28T00:37:40;99430.59;;;11.16;84.43
83246;BME280;73140;46.754;17.714;2024-02-28T00:40:08;99458.03;;;11.38;85.26
83246;BME280;73140;46.754;17.714;2024-02-28T00:42:34;99461.53;;;11.37;85.32
83246;BME280;73140;46.754;17.714;2024-02-28T00:45:00;99381.94;;;10.88;84.42
83246;BME280;73140;46.754;17.714;2024-02-28T00:47:26;99336.84;;;10.70;85.18
83246;BME280;73140;46.754;17.714;2024-02-28T00:49:54;99361.56;;;10.78;86.00
83246;BME280;73140;46.754;17.714;2024-02-28T00:52:19;99447.41;;;11.29;85.81
83246;BME280;73140;46.754;17.714;2024-02-28T00:54:45;99452.66;;;11.17;85.73
83246;BME280;73140;46.754;17.714;2024-02-28T00:57:11;99405.72;;;10.90;84.72
83246;BME280;73140;46.754;17.714;2024-02-28T00:59:37;99469.41;;;11.17;86.14
83246;BME280;73140;46.754;17.714;2024-02-28T01:02:03;99417.25;;;10.94;86.31
83246;BME280;73140;46.754;17.714;2024-02-28T01:04:29;99450.88;;;11.13;86.53
83246;BME280;73140;46.754;17.714;2024-02-28T01:06:57;99448.19;;;11.11;85.96
83246;BME280;73140;46.754;17.714;2024-02-28T01:09:23;99436.72;;;11.05;86.08
83246;BME280;73140;46.754;17.714;2024-02-28T01:11:49;99421.59;;;10.90;86.31
83246;BME280;73140;46.754;17.714;2024-02-28T01:14:15;99463.19;;;11.11;86.59
83246;BME280;73140;46.754;17.714;2024-02-28T01:16:41;99426.91;;;10.88;87.44
83246;BME280;73140;46.754;17.714;2024-02-28T01:19:07;99417.25;;;10.94;86.91
83246;BME280;73140;46.754;17.714;2024-02-28T01:21:33;99442.91;;;11.08;86.30
83246;BME280;73140;46.754;17.714;2024-02-28T01:24:00;99442.00;;;11.06;86.39
83246;BME280;73140;46.754;17.714;2024-02-28T01:26:26;99438.44;;;11.00;86.29
83246;BME280;73140;46.754;17.714;2024-02-28T01:28:52;99460.53;;;11.08;86.82
83246;BME280;73140;46.754;17.714;2024-02-28T01:31:18;99452.50;;;10.93;86.45
83246;BME280;73140;46.754;17.714;2024-02-28T01:33:44;99460.47;;;10.96;87.84
83246;BME280;73140;46.754;17.714;2024-02-28T01:36:11;99374.53;;;10.33;87.44
83246;BME280;73140;46.754;17.714;2024-02-28T01:38:37;99473.63;;;10.83;87.54
83246;BME280;73140;46.754;17.714;2024-02-28T01:41:04;99385.13;;;10.39;87.17
83246;BME280;73140;46.754;17.714;2024-02-28T01:43:31;99436.47;;;10.65;87.57
83246;BME280;73140;46.754;17.714;2024-02-28T01:46:00;99360.34;;;10.19;87.76
83246;BME280;73140;46.754;17.714;2024-02-28T01:48:27;99408.09;;;10.41;87.42
83246;BME280;73140;46.754;17.714;2024-02-28T01:50:53;99453.22;;;10.67;85.78
83246;BME280;73140;46.754;17.714;2024-02-28T01:53:19;99412.63;;;10.58;85.47
83246;BME280;73140;46.754;17.714;2024-02-28T01:55:45;99441.00;;;10.84;86.22
83246;BME280;73140;46.754;17.714;2024-02-28T01:58:14;99457.84;;;11.02;85.24
83246;BME280;73140;46.754;17.714;2024-02-28T02:00:40;99462.25;;;11.03;83.99
83246;BME280;73140;46.754;17.714;2024-02-28T02:03:07;99462.22;;;10.98;84.85
83246;BME280;73140;46.754;17.714;2024-02-28T02:05:33;99397.66;;;10.64;84.01
83246;BME280;73140;46.754;17.714;2024-02-28T02:08:00;99451.56;;;10.81;84.72
83246;BME280;73140;46.754;17.714;2024-02-28T02:10:27;99471.00;;;10.91;84.29
83246;BME280;73140;46.754;17.714;2024-02-28T02:12:54;99433.84;;;10.71;85.28
83246;BME280;73140;46.754;17.714;2024-02-28T02:15:21;99472.75;;;10.87;84.13
83246;BME280;73140;46.754;17.714;2024-02-28T02:17:47;99375.41;;;10.32;85.09
83246;BME280;73140;46.754;17.714;2024-02-28T02:20:14;99452.44;;;10.80;85.96
83246;BME280;73140;46.754;17.714;2024-02-28T02:22:42;99337.22;;;9.98;85.23
83246;BME280;73140;46.754;17.714;2024-02-28T02:25:09;99368.13;;;10.08;85.64
83246;BME280;73140;46.754;17.714;2024-02-28T02:27:35;99487.50;;;10.52;88.61
83246;BME280;73140;46.754;17.714;2024-02-28T02:30:01;99434.34;;;10.19;88.67
83246;BME280;73140;46.754;17.714;2024-02-28T02:32:27;99457.47;;;10.42;88.94
83246;BME280;73140;46.754;17.714;2024-02-28T02:34:54;99475.06;;;10.42;90.69
83246;BME280;73140;46.754;17.714;2024-02-28T02:37:20;99491.81;;;10.41;90.79
83246;BME280;73140;46.754;17.714;2024-02-28T02:39:47;99485.59;;;10.36;89.03
83246;BME280;73140;46.754;17.714;2024-02-28T02:42:13;99488.88;;;10.14;90.45
83246;BME280;73140;46.754;17.714;2024-02-28T02:44:40;99367.53;;;9.43;89.38
83246;BME280;73140;46.754;17.714;2024-02-28T02:47:07;99485.13;;;9.90;89.71
83246;BME280;73140;46.754;17.714;2024-02-28T02:49:33;99442.63;;;9.72;90.83
83246;BME280;73140;46.754;17.714;2024-02-28T02:51:59;99500.19;;;10.04;89.41
83246;BME280;73140;46.754;17.714;2024-02-28T02:54:25;99478.19;;;10.05;88.48
83246;BME280;73140;46.754;17.714;2024-02-28T02:56:52;99433.78;;;9.64;89.89
83246;BME280;73140;46.754;17.714;2024-02-28T02:59:18;99465.69;;;9.85;89.28
83246;BME280;73140;46.754;17.714;2024-02-28T03:01:49;99511.91;;;10.24;87.86
83246;BME280;73140;46.754;17.714;2024-02-28T03:04:15;99387.09;;;9.60;88.39
83246;BME280;73140;46.754;17.714;2024-02-28T03:06:41;99531.56;;;10.50;88.45
83246;BME280;73140;46.754;17.714;2024-02-28T03:09:07;99513.16;;;10.62;86.61
83246;BME280;73140;46.754;17.714;2024-02-28T03:11:33;99509.66;;;10.71;87.21
83246;BME280;73140;46.754;17.714;2024-02-28T03:14:02;99443.34;;;10.42;86.24
83246;BME280;73140;46.754;17.714;2024-02-28T03:16:28;99392.22;;;10.43;85.05
83246;BME280;73140;46.754;17.714;2024-02-28T03:18:54;99429.50;;;10.78;84.01
83246;BME280;73140;46.754;17.714;2024-02-28T03:21:22;99404.63;;;10.53;84.40
83246;BME280;73140;46.754;17.714;2024-02-28T03:23:48;99517.84;;;11.06;83.95
83246;BME280;73140;46.754;17.714;2024-02-28T03:26:14;99506.19;;;10.73;84.05
83246;BME280;73140;46.754;17.714;2024-02-28T03:28:40;99482.19;;;10.49;86.55
83246;BME280;73140;46.754;17.714;2024-02-28T03:31:08;99490.22;;;10.63;85.51
83246;BME280;73140;46.754;17.714;2024-02-28T03:33:34;99482.22;;;10.55;86.21
83246;BME280;73140;46.754;17.714;2024-02-28T03:36:01;99520.28;;;10.75;85.27
83246;BME280;73140;46.754;17.714;2024-02-28T03:38:27;99537.88;;;10.66;84.78
83246;BME280;73140;46.754;17.714;2024-02-28T03:40:53;99534.13;;;10.42;85.25
83246;BME280;73140;46.754;17.714;2024-02-28T03:43:19;99508.28;;;10.16;86.30
83246;BME280;73140;46.754;17.714;2024-02-28T03:45:45;99550.66;;;10.22;87.15
83246;BME280;73140;46.754;17.714;2024-02-28T03:48:12;99541.72;;;10.11;87.53
83246;BME280;73140;46.754;17.714;2024-02-28T03:50:38;99541.66;;;10.08;86.94
83246;BME280;73140;46.754;17.714;2024-02-28T03:53:04;99527.34;;;9.87;88.08
83246;BME280;73140;46.754;17.714;2024-02-28T03:55:31;99513.19;;;9.79;88.88
83246;BME280;73140;46.754;17.714;2024-02-28T03:57:56;99528.28;;;9.92;89.14
83246;BME280;73140;46.754;17.714;2024-02-28T04:00:22;99441.47;;;9.46;89.56
83246;BME280;73140;46.754;17.714;2024-02-28T04:02:48;99555.69;;;10.04;88.51
83246;BME280;73140;46.754;17.714;2024-02-28T04:05:16;99500.84;;;9.81;89.16
83246;BME280;73140;46.754;17.714;2024-02-28T04:07:43;99470.75;;;9.66;89.10
83246;BME280;73140;46.754;17.714;2024-02-28T04:10:09;99548.00;;;10.19;89.08
83246;BME280;73140;46.754;17.714;2024-02-28T04:12:36;99543.44;;;10.12;88.43
83246;BME280;73140;46.754;17.714;2024-02-28T04:15:03;99520.47;;;10.05;88.38
83246;BME280;73140;46.754;17.714;2024-02-28T04:17:29;99543.56;;;10.19;88.04
83246;BME280;73140;46.754;17.714;2024-02-28T04:19:55;99486.91;;;9.91;88.62
83246;BME280;73140;46.754;17.714;2024-02-28T04:22:24;99510.69;;;9.94;87.40
83246;BME280;73140;46.754;17.714;2024-02-28T04:24:50;99557.00;;;10.37;87.61
83246;BME280;73140;46.754;17.714;2024-02-28T04:27:16;99542.78;;;10.26;87.57
83246;BME280;73140;46.754;17.714;2024-02-28T04:29:42;99533.94;;;10.24;87.82
83246;BME280;73140;46.754;17.714;2024-02-28T04:32:08;99560.50;;;10.36;86.78
83246;BME280;73140;46.754;17.714;2024-02-28T04:34:36;99552.53;;;10.30;88.25
83246;BME280;73140;46.754;17.714;2024-02-28T04:37:02;99469.13;;;9.78;87.47
83246;BME280;73140;46.754;17.714;2024-02-28T04:39:29;99495.78;;;10.00;87.44
83246;BME280;73140;46.754;17.714;2024-02-28T04:41:55;99449.84;;;9.84;86.35
83246;BME280;73140;46.754;17.714;2024-02-28T04:44:21;99513.56;;;10.16;86.37
83246;BME280;73140;46.754;17.714;2024-02-28T04:46:47;99531.31;;;10.23;86.84
83246;BME280;73140;46.754;17.714;2024-02-28T04:49:13;99567.44;;;10.25;87.07
83246;BME280;73140;46.754;17.714;2024-02-28T04:51:39;99571.84;;;10.25;86.58
83246;BME280;73140;46.754;17.714;2024-02-28T04:54:05;99518.78;;;10.10;86.36
83246;BME280;73140;46.754;17.714;2024-02-28T04:56:32;99483.31;;;9.86;86.11
83246;BME280;73140;46.754;17.714;2024-02-28T04:58:58;99538.16;;;10.07;85.18
83246;BME280;73140;46.754;17.714;2024-02-28T05:01:24;99562.06;;;10.18;85.60
83246;BME280;73140;46.754;17.714;2024-02-28T05:03:50;99544.16;;;9.94;85.66
83246;BME280;73140;46.754;17.714;2024-02-28T05:06:16;99518.38;;;9.73;85.58
83246;BME280;73140;46.754;17.714;2024-02-28T05:08:42;99515.63;;;9.64;85.92
83246;BME280;73140;46.754;17.714;2024-02-28T05:11:08;99476.63;;;9.40;86.43
83246;BME280;73140;46.754;17.714;2024-02-28T05:13:36;99552.72;;;9.76;86.29
83246;BME280;73140;46.754;17.714;2024-02-28T05:16:02;99566.78;;;9.72;86.52
83246;BME280;73140;46.754;17.714;2024-02-28T05:18:28;99545.34;;;9.49;87.58
83246;BME280;73140;46.754;17.714;2024-02-28T05:20:54;99554.16;;;9.48;87.48
83246;BME280;73140;46.754;17.714;2024-02-28T05:23:20;99543.44;;;9.36;88.73
83246;BME280;73140;46.754;17.714;2024-02-28T05:25:46;99574.25;;;9.39;88.38
83246;BME280;73140;46.754;17.714;2024-02-28T05:28:12;99574.03;;;9.25;88.67
83246;BME280;73140;46.754;17.714;2024-02-28T05:30:40;99483.53;;;8.71;88.94
83246;BME280;73140;46.754;17.714;2024-02-28T05:33:06;99544.59;;;8.98;88.89
83246;BME280;73140;46.754;17.714;2024-02-28T05:35:32;99476.44;;;8.65;89.41
83246;BME280;73140;46.754;17.714;2024-02-28T05:37:58;99571.28;;;9.18;89.78
83246;BME280;73140;46.754;17.714;2024-02-28T05:40:24;99550.88;;;9.05;89.94
83246;BME280;73140;46.754;17.714;2024-02-28T05:42:50;99579.28;;;9.21;89.38
83246;BME280;73140;46.754;17.714;2024-02-28T05:45:16;99501.16;;;8.73;88.89
83246;BME280;73140;46.754;17.714;2024-02-28T05:47:43;99602.13;;;9.22;90.00
83246;BME280;73140;46.754;17.714;2024-02-28T05:50:10;99601.28;;;9.23;89.46
83246;BME280;73140;46.754;17.714;2024-02-28T05:52:36;99589.59;;;9.06;89.59
83246;BME280;73140;46.754;17.714;2024-02-28T05:55:02;99596.88;;;9.20;89.98
83246;BME280;73140;46.754;17.714;2024-02-28T05:57:28;99585.44;;;9.21;89.10
83246;BME280;73140;46.754;17.714;2024-02-28T05:59:54;99622.66;;;9.39;90.18
83246;BME280;73140;46.754;17.714;2024-02-28T06:02:20;99604.91;;;9.29;89.81
83246;BME280;73140;46.754;17.714;2024-02-28T06:04:47;99526.09;;;8.93;89.95
83246;BME280;73140;46.754;17.714;2024-02-28T06:07:14;99632.50;;;9.51;89.92
83246;BME280;73140;46.754;17.714;2024-02-28T06:09:40;99627.31;;;9.57;90.20
83246;BME280;73140;46.754;17.714;2024-02-28T06:12:06;99557.28;;;9.20;89.58
83246;BME280;73140;46.754;17.714;2024-02-28T06:14:32;99611.34;;;9.48;89.97
83246;BME280;73140;46.754;17.714;2024-02-28T06:16:58;99652.13;;;9.68;89.53
83246;BME280;73140;46.754;17.714;2024-02-28T06:19:24;99654.84;;;9.74;89.20
83246;BME280;73140;46.754;17.714;2024-02-28T06:21:51;99637.97;;;9.63;89.25
83246;BME280;73140;46.754;17.714;2024-02-28T06:24:17;99650.56;;;9.82;88.51
83246;BME280;73140;46.754;17.714;2024-02-28T06:26:43;99653.31;;;9.90;89.29
83246;BME280;73140;46.754;17.714;2024-02-28T06:29:09;99590.41;;;9.62;87.97
83246;BME280;73140;46.754;17.714;2024-02-28T06:31:35;99607.34;;;9.76;88.76
83246;BME280;73140;46.754;17.714;2024-02-28T06:34:02;99592.25;;;9.67;87.90
83246;BME280;73140;46.754;17.714;2024-02-28T06:36:29;99651.00;;;10.14;88.74
83246;BME280;73140;46.754;17.714;2024-02-28T06:38:57;99575.56;;;9.70;87.96
83246;BME280;73140;46.754;17.714;2024-02-28T06:41:23;99632.59;;;10.23;87.79
83246;BME280;73140;46.754;17.714;2024-02-28T06:43:49;99669.06;;;10.50;87.19
83246;BME280;73140;46.754;17.714;2024-02-28T06:46:15;99656.00;;;10.62;87.20
83246;BME280;73140;46.754;17.714;2024-02-28T06:48:41;99584.19;;;10.26;86.41
83246;BME280;73140;46.754;17.714;2024-02-28T06:51:08;99586.16;;;10.45;86.43
83246;BME280;73140;46.754;17.714;2024-02-28T06:53:34;99660.88;;;11.12;85.75
83246;BME280;73140;46.754;17.714;2024-02-28T06:56:02;99636.19;;;11.16;85.58
83246;BME280;73140;46.754;17.714;2024-02-28T06:58:29;99650.50;;;11.39;85.51
83246;BME280;73140;46.754;17.714;2024-02-28T07:00:55;99632.91;;;11.47;84.03
83246;BME280;73140;46.754;17.714;2024-02-28T07:03:21;99647.13;;;11.63;84.02
83246;BME280;73140;46.754;17.714;2024-02-28T07:05:47;99651.63;;;11.71;83.73
83246;BME280;73140;46.754;17.714;2024-02-28T07:08:13;99653.50;;;11.88;83.55
83246;BME280;73140;46.754;17.714;2024-02-28T07:10:39;99644.69;;;11.95;82.30
83246;BME280;73140;46.754;17.714;2024-02-28T07:13:10;99564.09;;;11.59;81.08
83246;BME280;73140;46.754;17.714;2024-02-28T07:15:36;99645.63;;;12.09;81.46
83246;BME280;73140;46.754;17.714;2024-02-28T07:18:02;99650.13;;;12.22;81.49
83246;BME280;73140;46.754;17.714;2024-02-28T07:20:28;99685.63;;;12.54;81.12
83246;BME280;73140;46.754;17.714;2024-02-28T07:22:54;99681.19;;;12.59;80.63
83246;BME280;73140;46.754;17.714;2024-02-28T07:25:20;99670.47;;;12.26;81.95
83246;BME280;73140;46.754;17.714;2024-02-28T07:27:47;99650.94;;;12.09;81.21
83246;BME280;73140;46.754;17.714;2024-02-28T07:30:15;99623.59;;;12.22;79.97
83246;BME280;73140;46.754;17.714;2024-02-28T07:32:41;99624.53;;;12.33;79.02
83246;BME280;73140;46.754;17.714;2024-02-28T07:35:08;99662.53;;;12.35;79.32
83246;BME280;73140;46.754;17.714;2024-02-28T07:37:34;99679.41;;;12.52;80.16
83246;BME280;73140;46.754;17.714;2024-02-28T07:40:00;99626.25;;;12.19;79.07
83246;BME280;73140;46.754;17.714;2024-02-28T07:42:26;99704.25;;;12.72;79.84
83246;BME280;73140;46.754;17.714;2024-02-28T07:44:52;99671.41;;;12.42;80.96
83246;BME280;73140;46.754;17.714;2024-02-28T07:47:24;99712.94;;;12.37;80.93
83246;BME280;73140;46.754;17.714;2024-02-28T07:49:50;99713.94;;;12.61;80.67
83246;BME280;73140;46.754;17.714;2024-02-28T07:52:16;99688.22;;;12.48;80.46
83246;BME280;73140;46.754;17.714;2024-02-28T07:54:42;99678.34;;;12.15;80.64
83246;BME280;73140;46.754;17.714;2024-02-28T07:57:11;99656.19;;;12.00;80.89
83246;BME280;73140;46.754;17.714;2024-02-28T07:59:39;99647.41;;;12.10;80.37
83246;BME280;73140;46.754;17.714;2024-02-28T08:02:05;99684.66;;;12.40;80.02
83246;BME280;73140;46.754;17.714;2024-02-28T08:04:33;99644.03;;;12.56;79.74
83246;BME280;73140;46.754;17.714;2024-02-28T08:06:59;99706.00;;;12.78;81.44
83246;BME280;73140;46.754;17.714;2024-02-28T08:09:25;99679.47;;;12.76;79.64
83246;BME280;73140;46.754;17.714;2024-02-28T08:11:51;99631.59;;;12.34;78.81
83246;BME280;73140;46.754;17.714;2024-02-28T08:14:17;99719.44;;;13.20;78.29
83246;BME280;73140;46.754;17.714;2024-02-28T08:16:43;99687.44;;;12.76;78.80
83246;BME280;73140;46.754;17.714;2024-02-28T08:19:11;99644.09;;;12.80;78.39
83246;BME280;73140;46.754;17.714;2024-02-28T08:21:38;99723.78;;;13.03;78.89
83246;BME280;73140;46.754;17.714;2024-02-28T08:24:04;99633.47;;;12.68;77.87
83246;BME280;73140;46.754;17.714;2024-02-28T08:26:30;99644.06;;;12.68;77.74
83246;BME280;73140;46.754;17.714;2024-02-28T08:28:56;99695.53;;;13.25;77.73
83246;BME280;73140;46.754;17.714;2024-02-28T08:31:22;99673.38;;;13.29;78.05
83246;BME280;73140;46.754;17.714;2024-02-28T08:33:48;99638.81;;;12.97;76.24
83246;BME280;73140;46.754;17.714;2024-02-28T08:36:14;99718.53;;;13.58;75.83
83246;BME280;73140;46.754;17.714;2024-02-28T08:38:45;99714.97;;;13.91;76.94
83246;BME280;73140;46.754;17.714;2024-02-28T08:41:10;99723.78;;;14.15;74.01
83246;BME280;73140;46.754;17.714;2024-02-28T08:43:38;99718.53;;;13.78;75.43
83246;BME280;73140;46.754;17.714;2024-02-28T08:46:04;99736.28;;;13.76;75.48
83246;BME280;73140;46.754;17.714;2024-02-28T08:48:30;99653.88;;;13.50;76.31
83246;BME280;73140;46.754;17.714;2024-02-28T08:50:56;99703.44;;;13.93;75.58
83246;BME280;73140;46.754;17.714;2024-02-28T08:53:22;99710.53;;;13.94;77.60
83246;BME280;73140;46.754;17.714;2024-02-28T08:55:49;99714.97;;;14.03;74.38
83246;BME280;73140;46.754;17.714;2024-02-28T08:58:15;99674.19;;;13.89;74.53
83246;BME280;73140;46.754;17.714;2024-02-28T09:00:41;99671.56;;;13.87;74.24
83246;BME280;73140;46.754;17.714;2024-02-28T09:03:07;99707.88;;;13.93;75.42
83246;BME280;73140;46.754;17.714;2024-02-28T09:05:33;99718.47;;;14.23;75.93
83246;BME280;73140;46.754;17.714;2024-02-28T09:07:59;99714.88;;;14.36;75.93
83246;BME280;73140;46.754;17.714;2024-02-28T09:10:25;99677.69;;;14.07;73.91
83246;BME280;73140;46.754;17.714;2024-02-28T09:12:52;99721.91;;;14.55;73.35
83246;BME280;73140;46.754;17.714;2024-02-28T09:15:19;99683.88;;;14.18;73.02
83246;BME280;73140;46.754;17.714;2024-02-28T09:17:45;99722.75;;;14.68;72.04
83246;BME280;73140;46.754;17.714;2024-02-28T09:20:12;99694.28;;;14.79;70.94
83246;BME280;73140;46.754;17.714;2024-02-28T09:22:38;99699.78;;;14.43;71.74
83246;BME280;73140;46.754;17.714;2024-02-28T09:25:06;99670.53;;;14.41;73.38
83246;BME280;73140;46.754;17.714;2024-02-28T09:27:32;99705.06;;;14.56;72.04
83246;BME280;73140;46.754;17.714;2024-02-28T09:30:00;99720.81;;;15.00;71.71
83246;BME280;73140;46.754;17.714;2024-02-28T09:32:26;99726.16;;;14.96;70.69
83246;BME280;73140;46.754;17.714;2024-02-28T09:34:51;99638.50;;;14.56;70.99
83246;BME280;73140;46.754;17.714;2024-02-28T09:37:17;99716.34;;;15.04;71.83
83246;BME280;73140;46.754;17.714;2024-02-28T09:39:44;99710.84;;;15.25;71.46
83246;BME280;73140;46.754;17.714;2024-02-28T09:42:10;99729.22;;;15.66;70.06
83246;BME280;73140;46.754;17.714;2024-02-28T09:44:36;99714.28;;;15.42;69.66
83246;BME280;73140;46.754;17.714;2024-02-28T09:47:04;99711.63;;;15.42;69.04
83246;BME280;73140;46.754;17.714;2024-02-28T09:49:31;99744.25;;;15.78;70.83
83246;BME280;73140;46.754;17.714;2024-02-28T09:51:58;99722.22;;;15.53;68.42
83246;BME280;73140;46.754;17.714;2024-02-28T09:54:24;99740.66;;;15.80;68.23
83246;BME280;73140;46.754;17.714;2024-02-28T09:56:51;99702.25;;;15.99;67.45
83246;BME280;73140;46.754;17.714;2024-02-28T09:59:18;99744.47;;;16.43;67.85
83246;BME280;73140;46.754;17.714;2024-02-28T10:01:48;99688.38;;;15.61;67.89
83246;BME280;73140;46.754;17.714;2024-02-28T10:04:19;99753.44;;;16.35;67.41
83246;BME280;73140;46.754;17.714;2024-02-28T10:06:46;99751.47;;;16.58;68.06
83246;BME280;73140;46.754;17.714;2024-02-28T10:09:15;99744.06;;;16.80;65.86
83246;BME280;73140;46.754;17.714;2024-02-28T10:11:42;99734.31;;;16.76;65.23
83246;BME280;73140;46.754;17.714;2024-02-28T10:14:11;99727.47;;;16.50;66.44
83246;BME280;73140;46.754;17.714;2024-02-28T10:16:38;99734.56;;;16.51;66.49
83246;BME280;73140;46.754;17.714;2024-02-28T10:19:05;99737.50;;;17.02;64.97
83246;BME280;73140;46.754;17.714;2024-02-28T10:21:32;99687.19;;;16.70;66.06
83246;BME280;73140;46.754;17.714;2024-02-28T10:23:59;99741.19;;;16.95;65.43
83246;BME280;73140;46.754;17.714;2024-02-28T10:26:25;99698.53;;;16.89;66.06
83246;BME280;73140;46.754;17.714;2024-02-28T10:28:51;99709.03;;;17.01;65.66
83246;BME280;73140;46.754;17.714;2024-02-28T10:31:17;99647.22;;;16.64;64.03
83246;BME280;73140;46.754;17.714;2024-02-28T10:33:43;99682.56;;;16.83;64.33
83246;BME280;73140;46.754;17.714;2024-02-28T10:36:10;99738.84;;;17.33;62.56
83246;BME280;73140;46.754;17.714;2024-02-28T10:38:39;99752.59;;;17.08;64.27
83246;BME280;73140;46.754;17.714;2024-02-28T10:41:05;99741.22;;;16.92;64.84
83246;BME280;73140;46.754;17.714;2024-02-28T10:43:31;99671.13;;;16.73;62.83
83246;BME280;73140;46.754;17.714;2024-02-28T10:46:00;99728.66;;;16.98;64.11
83246;BME280;73140;46.754;17.714;2024-02-28T10:48:27;99733.81;;;17.12;63.04
83246;BME280;73140;46.754;17.714;2024-02-28T10:50:53;99737.34;;;17.14;62.53
83246;BME280;73140;46.754;17.714;2024-02-28T10:53:28;99682.88;;;16.60;62.84
83246;BME280;73140;46.754;17.714;2024-02-28T10:56:02;99755.16;;;17.15;63.22
83246;BME280;73140;46.754;17.714;2024-02-28T10:58:35;99749.09;;;17.04;63.76
83246;BME280;73140;46.754;17.714;2024-02-28T11:01:03;99743.03;;;16.90;62.30
83246;BME280;73140;46.754;17.714;2024-02-28T11:03:30;99715.34;;;16.19;63.06
83246;BME280;73140;46.754;17.714;2024-02-28T11:05:57;99732.84;;;16.47;64.90
83246;BME280;73140;46.754;17.714;2024-02-28T11:08:23;99747.19;;;16.40;63.34
83246;BME280;73140;46.754;17.714;2024-02-28T11:10:55;99741.06;;;16.29;64.40
83246;BME280;73140;46.754;17.714;2024-02-28T11:13:23;99696.53;;;16.33;65.08
83246;BME280;73140;46.754;17.714;2024-02-28T11:15:49;99745.19;;;16.61;63.37
83246;BME280;73140;46.754;17.714;2024-02-28T11:18:15;99756.81;;;16.57;64.70
83246;BME280;73140;46.754;17.714;2024-02-28T11:20:41;99751.19;;;16.79;63.41
83246;BME280;73140;46.754;17.714;2024-02-28T11:23:09;99745.38;;;16.42;63.56
83246;BME280;73140;46.754;17.714;2024-02-28T11:25:35;99651.56;;;15.98;64.06
83246;BME280;73140;46.754;17.714;2024-02-28T11:28:01;99756.56;;;16.78;63.54
83246;BME280;73140;46.754;17.714;2024-02-28T11:30:29;99748.63;;;16.72;64.20
83246;BME280;73140;46.754;17.714;2024-02-28T11:32:55;99737.09;;;16.67;63.47
83246;BME280;73140;46.754;17.714;2024-02-28T11:35:24;99757.38;;;16.83;62.28
83246;BME280;73140;46.754;17.714;2024-02-28T11:37:50;99690.00;;;16.55;62.17
83246;BME280;73140;46.754;17.714;2024-02-28T11:40:16;99695.78;;;16.20;63.30
83246;BME280;73140;46.754;17.714;2024-02-28T11:42:42;99740.09;;;16.36;63.66
83246;BME280;73140;46.754;17.714;2024-02-28T11:45:10;99729.47;;;16.33;63.95
83246;BME280;73140;46.754;17.714;2024-02-28T11:47:37;99721.06;;;16.67;62.62
83246;BME280;73140;46.754;17.714;2024-02-28T11:50:05;99742.75;;;17.11;63.49
83246;BME280;73140;46.754;17.714;2024-02-28T11:52:31;99733.00;;;17.07;63.68
83246;BME280;73140;46.754;17.714;2024-02-28T11:54:57;99726.59;;;17.17;63.28
83246;BME280;73140;46.754;17.714;2024-02-28T11:57:23;99701.97;;;16.97;61.79
83246;BME280;73140;46.754;17.714;2024-02-28T11:59:49;99680.72;;;16.86;61.41
83246;BME280;73140;46.754;17.714;2024-02-28T12:02:17;99713.84;;;17.36;61.78
83246;BME280;73140;46.754;17.714;2024-02-28T12:04:45;99662.34;;;17.23;60.81
83246;BME280;73140;46.754;17.714;2024-02-28T12:07:11;99691.09;;;17.09;61.30
83246;BME280;73140;46.754;17.714;2024-02-28T12:09:38;99712.09;;;17.33;60.93
83246;BME280;73140;46.754;17.714;2024-02-28T12:12:07;99710.44;;;17.81;60.80
83246;BME280;73140;46.754;17.714;2024-02-28T12:14:36;99674.97;;;17.69;60.54
83246;BME280;73140;46.754;17.714;2024-02-28T12:17:04;99696.84;;;17.95;62.02
83246;BME280;73140;46.754;17.714;2024-02-28T12:19:30;99713.66;;;18.00;59.73
83246;BME280;73140;46.754;17.714;2024-02-28T12:21:57;99710.69;;;18.15;60.58
83246;BME280;73140;46.754;17.714;2024-02-28T12:24:24;99710.44;;;18.30;58.90
83246;BME280;73140;46.754;17.714;2024-02-28T12:26:50;99657.34;;;18.06;59.40
83246;BME280;73140;46.754;17.714;2024-02-28T12:29:16;99689.47;;;18.54;59.67
83246;BME280;73140;46.754;17.714;2024-02-28T12:31:42;99693.56;;;18.25;59.99
83246;BME280;73140;46.754;17.714;2024-02-28T12:34:08;99685.59;;;18.22;60.67
83246;BME280;73140;46.754;17.714;2024-02-28T12:36:34;99695.84;;;18.45;61.76
83246;BME280;73140;46.754;17.714;2024-02-28T12:39:02;99607.94;;;17.78;60.10
83246;BME280;73140;46.754;17.714;2024-02-28T12:41:28;99694.38;;;18.29;61.45
83246;BME280;73140;46.754;17.714;2024-02-28T12:43:54;99678.69;;;18.55;59.72
83246;BME280;73140;46.754;17.714;2024-02-28T12:46:20;99699.22;;;18.55;60.81
83246;BME280;73140;46.754;17.714;2024-02-28T12:48:46;99702.38;;;18.75;60.01